sensor_id;sensor_type;location;lat;lon;timestamp;pressure;altitude;pressure_sealevel;temperature;humidity
2841;BME280;53423;49.224;12.074;2022-12-13T00:01:33;97344.19;;;-5.09;60.02
2841;BME280;53423;49.224;12.074;2022-12-13T00:04:03;97341.59;;;-5.25;60.20
2841;BME280;53423;49.224;12.074;2022-12-13T00:06:34;97339.47;;;-5.17;59.83
2841;BME280;53423;49.224;12.074;2022-12-13T00:09:03;97334.19;;;-5.14;59.71
2841;BME280;53423;49.224;12.074;2022-12-13T00:11:31;97338.81;;;-5.37;60.19
2841;BME280;53423;49.224;12.074;2022-12-13T00:14:00;97338.13;;;-5.24;59.60
2841;BME280;53423;49.224;12.074;2022-12-13T00:16:28;97344.81;;;-5.21;59.63
2841;BME280;53423;49.224;12.074;2022-12-13T00:18:57;97343.22;;;-5.07;59.28
2841;BME280;53423;49.224;12.074;2022-12-13T00:21:28;97348.63;;;-5.13;59.17
2841;BME280;53423;49.224;12.074;2022-12-13T00:23:58;97335.41;;;-5.21;59.40
2841;BME280;53423;49.224;12.074;2022-12-13T00:26:29;97338.72;;;-5.36;60.15
2841;BME280;53423;49.224;12.074;2022-12-13T00:28:58;97341.50;;;-5.23;60.09
2841;BME280;53423;49.224;12.074;2022-12-13T00:31:26;97345.16;;;-5.12;59.53
2841;BME280;53423;49.224;12.074;2022-12-13T00:34:17;97333.31;;;-5.13;59.46
2841;BME280;53423;49.224;12.074;2022-12-13T00:36:45;97339.56;;;-5.18;59.06
2841;BME280;53423;49.224;12.074;2022-12-13T00:39:15;97343.16;;;-5.22;60.20
2841;BME280;53423;49.224;12.074;2022-12-13T00:41:45;97345.69;;;-5.22;59.61
2841;BME280;53423;49.224;12.074;2022-12-13T00:44:13;97344.44;;;-5.31;59.73
2841;BME280;53423;49.224;12.074;2022-12-13T00:46:41;97340.56;;;-5.55;59.04
2841;BME280;53423;49.224;12.074;2022-12-13T00:49:10;97342.03;;;-5.51;59.52
2841;BME280;53423;49.224;12.074;2022-12-13T00:51:39;97329.00;;;-5.62;59.94
2841;BME280;53423;49.224;12.074;2022-12-13T00:54:09;97331.38;;;-5.76;60.79
2841;BME280;53423;49.224;12.074;2022-12-13T00:56:38;97325.91;;;-5.68;61.26
2841;BME280;53423;49.224;12.074;2022-12-13T00:59:08;97324.84;;;-5.64;60.75
2841;BME280;53423;49.224;12.074;2022-12-13T01:01:36;97329.66;;;-5.58;59.96
2841;BME280;53423;49.224;12.074;2022-12-13T01:04:05;97330.47;;;-5.58;60.17
2841;BME280;53423;49.224;12.074;2022-12-13T01:06:36;97324.13;;;-5.66;60.34
2841;BME280;53423;49.224;12.074;2022-12-13T01:09:09;97330.34;;;-5.55;59.81
2841;BME280;53423;49.224;12.074;2022-12-13T01:11:40;97327.56;;;-5.50;60.30
2841;BME280;53423;49.224;12.074;2022-12-13T01:14:08;97318.38;;;-5.54;59.24
2841;BME280;53423;49.224;12.074;2022-12-13T01:16:36;97325.84;;;-5.67;60.24
2841;BME280;53423;49.224;12.074;2022-12-13T01:19:05;97321.78;;;-5.54;60.01
2841;BME280;53423;49.224;12.074;2022-12-13T01:21:33;97316.06;;;-5.59;60.17
2841;BME280;53423;49.224;12.074;2022-12-13T01:24:02;97315.72;;;-5.51;59.79
2841;BME280;53423;49.224;12.074;2022-12-13T01:26:31;97316.06;;;-5.59;59.35
2841;BME280;53423;49.224;12.074;2022-12-13T01:29:01;97306.53;;;-5.72;60.52
2841;BME280;53423;49.224;12.074;2022-12-13T01:31:30;97316.38;;;-5.82;60.23
2841;BME280;53423;49.224;12.074;2022-12-13T01:33:59;97313.53;;;-5.59;59.62
2841;BME280;53423;49.224;12.074;2022-12-13T01:36:36;97314.44;;;-5.60;59.86
2841;BME280;53423;49.224;12.074;2022-12-13T01:39:05;97309.00;;;-5.54;60.01
2841;BME280;53423;49.224;12.074;2022-12-13T01:41:41;97314.19;;;-5.55;59.96
2841;BME280;53423;49.224;12.074;2022-12-13T01:47:14;97309.03;;;-6.05;60.55
2841;BME280;53423;49.224;12.074;2022-12-13T01:49:45;97300.41;;;-5.85;60.07
2841;BME280;53423;49.224;12.074;2022-12-13T01:52:14;97299.28;;;-5.80;59.26
2841;BME280;53423;49.224;12.074;2022-12-13T01:54:45;97295.03;;;-5.96;58.96
2841;BME280;53423;49.224;12.074;2022-12-13T01:57:16;97300.16;;;-5.81;59.49
2841;BME280;53423;49.224;12.074;2022-12-13T01:59:48;97297.50;;;-5.95;59.91
2841;BME280;53423;49.224;12.074;2022-12-13T02:02:18;97295.06;;;-5.81;59.58
2841;BME280;53423;49.224;12.074;2022-12-13T02:04:50;97300.00;;;-5.78;59.70
2841;BME280;53423;49.224;12.074;2022-12-13T02:07:25;97288.25;;;-5.80;59.03
2841;BME280;53423;49.224;12.074;2022-12-13T02:09:56;97296.09;;;-5.83;59.01
2841;BME280;53423;49.224;12.074;2022-12-13T02:12:27;97293.53;;;-5.83;59.62
2841;BME280;53423;49.224;12.074;2022-12-13T02:14:57;97295.31;;;-5.68;59.12
2841;BME280;53423;49.224;12.074;2022-12-13T02:17:33;97290.53;;;-5.91;59.57
2841;BME280;53423;49.224;12.074;2022-12-13T02:20:33;97290.72;;;-5.79;59.10
2841;BME280;53423;49.224;12.074;2022-12-13T02:23:30;97285.47;;;-5.93;59.54
2841;BME280;53423;49.224;12.074;2022-12-13T02:26:39;97287.75;;;-5.87;58.91
2841;BME280;53423;49.224;12.074;2022-12-13T02:29:22;97296.66;;;-5.95;58.65
2841;BME280;53423;49.224;12.074;2022-12-13T02:32:01;97292.16;;;-5.90;58.71
2841;BME280;53423;49.224;12.074;2022-12-13T02:34:35;97280.97;;;-5.88;58.76
2841;BME280;53423;49.224;12.074;2022-12-13T02:37:10;97289.09;;;-5.97;59.10
2841;BME280;53423;49.224;12.074;2022-12-13T02:39:49;97282.03;;;-5.92;58.84
2841;BME280;53423;49.224;12.074;2022-12-13T02:42:22;97274.81;;;-6.01;59.22
2841;BME280;53423;49.224;12.074;2022-12-13T02:44:55;97283.06;;;-6.13;59.66
2841;BME280;53423;49.224;12.074;2022-12-13T02:47:26;97278.44;;;-6.05;59.08
2841;BME280;53423;49.224;12.074;2022-12-13T02:49:58;97274.69;;;-6.15;59.66
2841;BME280;53423;49.224;12.074;2022-12-13T02:52:28;97275.66;;;-6.00;59.42
2841;BME280;53423;49.224;12.074;2022-12-13T02:54:58;97278.09;;;-6.33;59.82
2841;BME280;53423;49.224;12.074;2022-12-13T02:57:29;97280.31;;;-6.44;60.07
2841;BME280;53423;49.224;12.074;2022-12-13T02:59:59;97285.81;;;-6.34;59.99
2841;BME280;53423;49.224;12.074;2022-12-13T03:02:39;97286.34;;;-6.28;60.63
2841;BME280;53423;49.224;12.074;2022-12-13T03:05:16;97283.88;;;-6.29;59.85
2841;BME280;53423;49.224;12.074;2022-12-13T03:08:13;97286.19;;;-6.42;59.18
2841;BME280;53423;49.224;12.074;2022-12-13T03:10:50;97280.69;;;-6.34;59.98
2841;BME280;53423;49.224;12.074;2022-12-13T03:13:24;97281.13;;;-6.25;59.75
2841;BME280;53423;49.224;12.074;2022-12-13T03:16:16;97271.81;;;-6.26;59.56
2841;BME280;53423;49.224;12.074;2022-12-13T03:18:50;97271.28;;;-6.32;59.30
2841;BME280;53423;49.224;12.074;2022-12-13T03:21:19;97273.25;;;-6.56;59.91
2841;BME280;53423;49.224;12.074;2022-12-13T03:23:47;97274.22;;;-6.59;60.86
2841;BME280;53423;49.224;12.074;2022-12-13T03:26:18;97276.16;;;-6.64;61.00
2841;BME280;53423;49.224;12.074;2022-12-13T03:28:46;97269.75;;;-6.54;60.33
2841;BME280;53423;49.224;12.074;2022-12-13T03:31:15;97270.25;;;-6.28;59.94
2841;BME280;53423;49.224;12.074;2022-12-13T03:33:43;97271.81;;;-6.26;59.90
2841;BME280;53423;49.224;12.074;2022-12-13T03:36:12;97273.81;;;-6.32;59.51
2841;BME280;53423;49.224;12.074;2022-12-13T03:38:41;97272.56;;;-6.24;59.62
2841;BME280;53423;49.224;12.074;2022-12-13T03:41:13;97265.00;;;-6.25;59.91
2841;BME280;53423;49.224;12.074;2022-12-13T03:43:42;97263.94;;;-6.21;59.39
2841;BME280;53423;49.224;12.074;2022-12-13T03:46:11;97255.47;;;-6.22;59.31
2841;BME280;53423;49.224;12.074;2022-12-13T03:48:39;97257.53;;;-6.47;59.48
2841;BME280;53423;49.224;12.074;2022-12-13T03:51:07;97253.34;;;-6.31;59.31
2841;BME280;53423;49.224;12.074;2022-12-13T03:53:36;97253.72;;;-6.38;59.08
2841;BME280;53423;49.224;12.074;2022-12-13T03:56:05;97258.34;;;-6.47;59.22
2841;BME280;53423;49.224;12.074;2022-12-13T03:58:34;97254.84;;;-6.44;59.29
2841;BME280;53423;49.224;12.074;2022-12-13T04:01:05;97250.31;;;-6.56;59.06
2841;BME280;53423;49.224;12.074;2022-12-13T04:03:33;97241.97;;;-6.60;59.73
2841;BME280;53423;49.224;12.074;2022-12-13T04:06:02;97249.34;;;-6.54;59.68
2841;BME280;53423;49.224;12.074;2022-12-13T04:08:30;97241.03;;;-6.57;59.54
2841;BME280;53423;49.224;12.074;2022-12-13T04:10:59;97239.13;;;-6.71;59.70
2841;BME280;53423;49.224;12.074;2022-12-13T04:13:48;97231.50;;;-6.89;60.05
2841;BME280;53423;49.224;12.074;2022-12-13T04:16:15;97232.50;;;-6.93;59.83
2841;BME280;53423;49.224;12.074;2022-12-13T04:18:43;97235.50;;;-6.84;60.19
2841;BME280;53423;49.224;12.074;2022-12-13T04:21:11;97238.66;;;-6.62;59.38
2841;BME280;53423;49.224;12.074;2022-12-13T04:23:39;97234.81;;;-6.70;59.37
2841;BME280;53423;49.224;12.074;2022-12-13T04:26:08;97233.94;;;-6.69;59.84
2841;BME280;53423;49.224;12.074;2022-12-13T04:28:36;97240.19;;;-6.58;59.15
2841;BME280;53423;49.224;12.074;2022-12-13T04:31:04;97228.28;;;-6.57;58.81
2841;BME280;53423;49.224;12.074;2022-12-13T04:33:32;97230.53;;;-6.51;59.16
2841;BME280;53423;49.224;12.074;2022-12-13T04:36:00;97225.94;;;-6.62;59.06
2841;BME280;53423;49.224;12.074;2022-12-13T04:38:28;97226.53;;;-6.74;59.71
2841;BME280;53423;49.224;12.074;2022-12-13T04:41:04;97218.78;;;-6.54;58.88
2841;BME280;53423;49.224;12.074;2022-12-13T04:43:33;97221.38;;;-6.55;58.73
2841;BME280;53423;49.224;12.074;2022-12-13T04:46:01;97218.53;;;-6.85;60.01
2841;BME280;53423;49.224;12.074;2022-12-13T04:48:29;97217.47;;;-6.98;60.18
2841;BME280;53423;49.224;12.074;2022-12-13T04:51:00;97218.88;;;-6.74;59.61
2841;BME280;53423;49.224;12.074;2022-12-13T04:53:28;97222.25;;;-6.73;59.50
2841;BME280;53423;49.224;12.074;2022-12-13T04:55:56;97220.81;;;-6.79;60.13
2841;BME280;53423;49.224;12.074;2022-12-13T04:58:24;97219.94;;;-6.96;60.54
2841;BME280;53423;49.224;12.074;2022-12-13T05:00:53;97234.66;;;-7.21;61.11
2841;BME280;53423;49.224;12.074;2022-12-13T05:03:22;97233.91;;;-7.05;60.45
2841;BME280;53423;49.224;12.074;2022-12-13T05:05:50;97226.00;;;-7.17;61.36
2841;BME280;53423;49.224;12.074;2022-12-13T05:08:18;97231.34;;;-7.23;61.69
2841;BME280;53423;49.224;12.074;2022-12-13T05:10:46;97218.38;;;-7.17;61.60
2841;BME280;53423;49.224;12.074;2022-12-13T05:13:14;97227.25;;;-7.07;61.64
2841;BME280;53423;49.224;12.074;2022-12-13T05:15:42;97223.72;;;-7.05;61.26
2841;BME280;53423;49.224;12.074;2022-12-13T05:18:11;97220.47;;;-6.90;61.77
2841;BME280;53423;49.224;12.074;2022-12-13T05:20:39;97230.59;;;-7.07;61.64
2841;BME280;53423;49.224;12.074;2022-12-13T05:23:07;97231.81;;;-7.15;62.40
2841;BME280;53423;49.224;12.074;2022-12-13T05:25:35;97233.00;;;-7.04;61.72
2841;BME280;53423;49.224;12.074;2022-12-13T05:28:03;97235.50;;;-7.02;62.37
2841;BME280;53423;49.224;12.074;2022-12-13T05:30:51;97233.81;;;-6.85;61.81
2841;BME280;53423;49.224;12.074;2022-12-13T05:33:21;97237.75;;;-6.78;61.23
2841;BME280;53423;49.224;12.074;2022-12-13T05:35:50;97237.19;;;-6.84;61.74
2841;BME280;53423;49.224;12.074;2022-12-13T05:38:26;97234.44;;;-6.98;61.88
2841;BME280;53423;49.224;12.074;2022-12-13T05:40:54;97232.88;;;-7.01;61.21
2841;BME280;53423;49.224;12.074;2022-12-13T05:43:22;97239.06;;;-7.63;61.95
2841;BME280;53423;49.224;12.074;2022-12-13T05:46:09;97232.50;;;-6.93;60.46
2841;BME280;53423;49.224;12.074;2022-12-13T05:48:40;97230.72;;;-6.91;59.93
2841;BME280;53423;49.224;12.074;2022-12-13T05:51:08;97235.75;;;-7.27;61.04
2841;BME280;53423;49.224;12.074;2022-12-13T05:53:38;97237.13;;;-7.20;61.53
2841;BME280;53423;49.224;12.074;2022-12-13T05:56:08;97226.25;;;-7.23;61.36
2841;BME280;53423;49.224;12.074;2022-12-13T05:58:37;97234.31;;;-6.95;60.23
2841;BME280;53423;49.224;12.074;2022-12-13T06:01:07;97217.72;;;-7.04;60.43
2841;BME280;53423;49.224;12.074;2022-12-13T06:03:35;97231.31;;;-7.42;61.08
2841;BME280;53423;49.224;12.074;2022-12-13T06:06:07;97222.34;;;-7.12;60.28
2841;BME280;53423;49.224;12.074;2022-12-13T06:08:35;97216.97;;;-7.24;60.28
2841;BME280;53423;49.224;12.074;2022-12-13T06:11:06;97217.94;;;-7.08;60.08
2841;BME280;53423;49.224;12.074;2022-12-13T06:13:39;97214.63;;;-6.92;59.41
2841;BME280;53423;49.224;12.074;2022-12-13T06:16:09;97220.31;;;-6.87;59.19
2841;BME280;53423;49.224;12.074;2022-12-13T06:18:50;97213.66;;;-6.89;59.35
2841;BME280;53423;49.224;12.074;2022-12-13T06:21:30;97208.84;;;-7.14;59.32
2841;BME280;53423;49.224;12.074;2022-12-13T06:24:11;97212.44;;;-6.99;59.48
2841;BME280;53423;49.224;12.074;2022-12-13T06:26:39;97211.28;;;-7.29;60.38
2841;BME280;53423;49.224;12.074;2022-12-13T06:29:07;97211.97;;;-7.26;60.54
2841;BME280;53423;49.224;12.074;2022-12-13T06:31:35;97211.91;;;-7.06;58.97
2841;BME280;53423;49.224;12.074;2022-12-13T06:34:04;97213.13;;;-7.14;59.72
2841;BME280;53423;49.224;12.074;2022-12-13T06:36:42;97210.16;;;-7.61;61.05
2841;BME280;53423;49.224;12.074;2022-12-13T06:39:10;97202.41;;;-7.21;59.67
2841;BME280;53423;49.224;12.074;2022-12-13T06:41:37;97214.16;;;-7.18;59.91
2841;BME280;53423;49.224;12.074;2022-12-13T06:44:06;97200.88;;;-7.25;60.33
2841;BME280;53423;49.224;12.074;2022-12-13T06:46:33;97213.94;;;-7.14;59.56
2841;BME280;53423;49.224;12.074;2022-12-13T06:49:06;97216.06;;;-7.05;59.30
2841;BME280;53423;49.224;12.074;2022-12-13T06:51:34;97214.38;;;-7.04;59.46
2841;BME280;53423;49.224;12.074;2022-12-13T06:54:03;97219.47;;;-7.04;59.71
2841;BME280;53423;49.224;12.074;2022-12-13T06:56:31;97219.44;;;-6.86;59.02
2841;BME280;53423;49.224;12.074;2022-12-13T06:58:59;97227.56;;;-7.15;58.96
2841;BME280;53423;49.224;12.074;2022-12-13T07:01:28;97230.72;;;-6.91;58.32
2841;BME280;53423;49.224;12.074;2022-12-13T07:04:03;97220.75;;;-6.77;58.57
2841;BME280;53423;49.224;12.074;2022-12-13T07:06:51;97216.97;;;-6.87;58.00
2841;BME280;53423;49.224;12.074;2022-12-13T07:09:21;97216.47;;;-6.95;57.82
2841;BME280;53423;49.224;12.074;2022-12-13T07:11:49;97215.44;;;-6.91;58.29
2841;BME280;53423;49.224;12.074;2022-12-13T07:14:18;97219.00;;;-6.77;57.72
2841;BME280;53423;49.224;12.074;2022-12-13T07:16:46;97219.09;;;-6.78;57.73
2841;BME280;53423;49.224;12.074;2022-12-13T07:19:14;97214.88;;;-6.61;57.45
2841;BME280;53423;49.224;12.074;2022-12-13T07:21:48;97218.22;;;-6.60;57.25
2841;BME280;53423;49.224;12.074;2022-12-13T07:24:16;97229.31;;;-6.61;57.39
2841;BME280;53423;49.224;12.074;2022-12-13T07:26:46;97224.97;;;-6.59;57.72
2841;BME280;53423;49.224;12.074;2022-12-13T07:29:14;97231.03;;;-6.62;58.58
2841;BME280;53423;49.224;12.074;2022-12-13T07:31:48;97224.72;;;-6.36;58.59
2841;BME280;53423;49.224;12.074;2022-12-13T07:34:16;97232.94;;;-5.80;56.70
2841;BME280;53423;49.224;12.074;2022-12-13T07:36:44;97221.28;;;-5.36;55.99
2841;BME280;53423;49.224;12.074;2022-12-13T07:39:12;97212.72;;;-4.71;54.78
2841;BME280;53423;49.224;12.074;2022-12-13T07:41:40;97213.78;;;-4.59;53.98
2841;BME280;53423;49.224;12.074;2022-12-13T07:44:09;97212.63;;;-3.65;51.79
2841;BME280;53423;49.224;12.074;2022-12-13T07:46:37;97209.56;;;-2.46;48.88
2841;BME280;53423;49.224;12.074;2022-12-13T07:49:05;97210.94;;;-0.76;43.75
2841;BME280;53423;49.224;12.074;2022-12-13T07:51:33;97212.22;;;-0.94;44.35
2841;BME280;53423;49.224;12.074;2022-12-13T07:54:04;97205.97;;;-0.20;42.54
2841;BME280;53423;49.224;12.074;2022-12-13T07:56:34;97207.22;;;2.29;36.64
2841;BME280;53423;49.224;12.074;2022-12-13T07:59:02;97213.06;;;2.93;34.30
2841;BME280;53423;49.224;12.074;2022-12-13T08:01:32;97205.41;;;2.91;34.08
2841;BME280;53423;49.224;12.074;2022-12-13T08:04:01;97203.34;;;4.69;32.02
2841;BME280;53423;49.224;12.074;2022-12-13T08:06:29;97202.09;;;6.01;28.88
2841;BME280;53423;49.224;12.074;2022-12-13T08:09:01;97197.03;;;7.03;27.13
2841;BME280;53423;49.224;12.074;2022-12-13T08:11:29;97187.41;;;7.79;26.44
2841;BME280;53423;49.224;12.074;2022-12-13T08:13:57;97191.72;;;9.09;24.01
2841;BME280;53423;49.224;12.074;2022-12-13T08:16:25;97187.78;;;10.21;22.78
2841;BME280;53423;49.224;12.074;2022-12-13T08:18:57;97182.97;;;11.06;21.80
2841;BME280;53423;49.224;12.074;2022-12-13T08:21:29;97171.19;;;11.61;21.27
2841;BME280;53423;49.224;12.074;2022-12-13T08:24:19;97164.59;;;12.64;19.76
2841;BME280;53423;49.224;12.074;2022-12-13T08:26:47;97168.13;;;12.98;19.66
2841;BME280;53423;49.224;12.074;2022-12-13T08:29:15;97174.28;;;12.84;20.49
2841;BME280;53423;49.224;12.074;2022-12-13T08:31:59;97174.72;;;13.90;18.95
2841;BME280;53423;49.224;12.074;2022-12-13T08:34:31;97174.28;;;15.06;18.37
2841;BME280;53423;49.224;12.074;2022-12-13T08:36:59;97180.59;;;14.85;17.14
2841;BME280;53423;49.224;12.074;2022-12-13T08:39:29;97176.13;;;15.05;17.91
2841;BME280;53423;49.224;12.074;2022-12-13T08:42:01;97174.25;;;14.34;18.82
2841;BME280;53423;49.224;12.074;2022-12-13T08:44:44;97172.22;;;15.34;17.33
2841;BME280;53423;49.224;12.074;2022-12-13T08:47:12;97184.16;;;13.71;18.73
2841;BME280;53423;49.224;12.074;2022-12-13T08:49:53;97173.34;;;15.77;17.26
2841;BME280;53423;49.224;12.074;2022-12-13T08:52:29;97171.31;;;17.10;15.79
2841;BME280;53423;49.224;12.074;2022-12-13T08:55:07;97172.06;;;16.68;16.41
2841;BME280;53423;49.224;12.074;2022-12-13T08:57:35;97177.50;;;16.04;16.93
2841;BME280;53423;49.224;12.074;2022-12-13T09:00:03;97179.81;;;17.36;16.57
2841;BME280;53423;49.224;12.074;2022-12-13T09:02:31;97185.41;;;15.53;16.38
2841;BME280;53423;49.224;12.074;2022-12-13T09:05:07;97184.81;;;17.45;15.36
2841;BME280;53423;49.224;12.074;2022-12-13T09:07:36;97184.09;;;17.92;15.76
2841;BME280;53423;49.224;12.074;2022-12-13T09:10:05;97184.72;;;17.76;15.29
2841;BME280;53423;49.224;12.074;2022-12-13T09:12:53;97184.34;;;17.72;15.69
2841;BME280;53423;49.224;12.074;2022-12-13T09:15:28;97183.97;;;20.03;13.57
2841;BME280;53423;49.224;12.074;2022-12-13T09:18:00;97189.88;;;19.30;14.12
2841;BME280;53423;49.224;12.074;2022-12-13T09:20:32;97188.47;;;17.50;15.42
2841;BME280;53423;49.224;12.074;2022-12-13T09:23:07;97182.78;;;18.30;14.92
2841;BME280;53423;49.224;12.074;2022-12-13T09:25:40;97186.09;;;18.85;14.38
2841;BME280;53423;49.224;12.074;2022-12-13T09:28:18;97189.94;;;19.01;14.47
2841;BME280;53423;49.224;12.074;2022-12-13T09:30:46;97180.09;;;18.90;14.61
2841;BME280;53423;49.224;12.074;2022-12-13T09:33:14;97172.22;;;16.97;15.96
2841;BME280;53423;49.224;12.074;2022-12-13T09:35:57;97176.84;;;17.26;15.54
2841;BME280;53423;49.224;12.074;2022-12-13T09:38:27;97170.31;;;15.73;18.03
2841;BME280;53423;49.224;12.074;2022-12-13T09:40:56;97169.44;;;13.90;20.14
2841;BME280;53423;49.224;12.074;2022-12-13T09:43:29;97159.34;;;14.07;19.92
2841;BME280;53423;49.224;12.074;2022-12-13T09:46:17;97162.50;;;12.52;21.31
2841;BME280;53423;49.224;12.074;2022-12-13T09:48:51;97166.66;;;11.84;23.62
2841;BME280;53423;49.224;12.074;2022-12-13T09:51:31;97170.22;;;8.42;27.94
2841;BME280;53423;49.224;12.074;2022-12-13T09:54:15;97179.00;;;5.98;32.36
2841;BME280;53423;49.224;12.074;2022-12-13T09:56:44;97172.44;;;5.67;34.87
2841;BME280;53423;49.224;12.074;2022-12-13T09:59:17;97181.72;;;4.13;38.63
2841;BME280;53423;49.224;12.074;2022-12-13T10:01:47;97180.97;;;4.59;36.80
2841;BME280;53423;49.224;12.074;2022-12-13T10:04:15;97177.09;;;5.19;36.69
2841;BME280;53423;49.224;12.074;2022-12-13T10:06:44;97166.06;;;6.06;34.18
2841;BME280;53423;49.224;12.074;2022-12-13T10:09:13;97166.41;;;5.22;35.87
2841;BME280;53423;49.224;12.074;2022-12-13T10:11:48;97162.50;;;4.71;36.87
2841;BME280;53423;49.224;12.074;2022-12-13T10:14:22;97168.91;;;5.68;35.50
2841;BME280;53423;49.224;12.074;2022-12-13T10:16:53;97150.91;;;7.95;32.12
2841;BME280;53423;49.224;12.074;2022-12-13T10:19:28;97150.06;;;9.07;29.07
2841;BME280;53423;49.224;12.074;2022-12-13T10:22:02;97158.47;;;6.12;33.52
2841;BME280;53423;49.224;12.074;2022-12-13T10:24:47;97152.91;;;6.51;35.38
2841;BME280;53423;49.224;12.074;2022-12-13T10:27:17;97148.69;;;8.24;30.57
2841;BME280;53423;49.224;12.074;2022-12-13T10:30:05;97147.75;;;9.81;27.90
2841;BME280;53423;49.224;12.074;2022-12-13T10:32:42;97138.81;;;10.44;27.03
2841;BME280;53423;49.224;12.074;2022-12-13T10:35:21;97138.56;;;8.61;29.10
2841;BME280;53423;49.224;12.074;2022-12-13T10:37:52;97137.28;;;7.02;33.03
2841;BME280;53423;49.224;12.074;2022-12-13T10:40:25;97124.53;;;8.38;30.71
2841;BME280;53423;49.224;12.074;2022-12-13T10:43:06;97127.16;;;10.83;27.39
2841;BME280;53423;49.224;12.074;2022-12-13T10:45:34;97128.69;;;10.92;26.37
2841;BME280;53423;49.224;12.074;2022-12-13T10:48:03;97135.94;;;10.16;26.82
2841;BME280;53423;49.224;12.074;2022-12-13T10:50:31;97134.31;;;8.68;29.80
2841;BME280;53423;49.224;12.074;2022-12-13T10:53:00;97140.66;;;10.21;27.70
2841;BME280;53423;49.224;12.074;2022-12-13T10:55:30;97153.53;;;6.45;33.45
2841;BME280;53423;49.224;12.074;2022-12-13T10:58:01;97148.09;;;5.23;36.24
2841;BME280;53423;49.224;12.074;2022-12-13T11:00:36;97153.50;;;4.66;37.47
2841;BME280;53423;49.224;12.074;2022-12-13T11:03:05;97147.53;;;3.32;41.34
2841;BME280;53423;49.224;12.074;2022-12-13T11:05:34;97139.69;;;2.43;42.96
2841;BME280;53423;49.224;12.074;2022-12-13T11:08:22;97129.38;;;2.83;42.47
2841;BME280;53423;49.224;12.074;2022-12-13T11:10:56;97143.41;;;2.29;43.81
2841;BME280;53423;49.224;12.074;2022-12-13T11:13:32;97142.41;;;3.02;43.31
2841;BME280;53423;49.224;12.074;2022-12-13T11:16:03;97133.56;;;6.10;36.99
2841;BME280;53423;49.224;12.074;2022-12-13T11:18:35;97130.72;;;9.55;30.49
2841;BME280;53423;49.224;12.074;2022-12-13T11:21:04;97122.06;;;10.07;27.10
2841;BME280;53423;49.224;12.074;2022-12-13T11:23:37;97105.06;;;7.69;32.63
2841;BME280;53423;49.224;12.074;2022-12-13T11:26:08;97106.06;;;10.62;28.32
2841;BME280;53423;49.224;12.074;2022-12-13T11:31:47;97102.16;;;11.46;26.31
2841;BME280;53423;49.224;12.074;2022-12-13T11:34:28;97098.00;;;9.28;28.15
2841;BME280;53423;49.224;12.074;2022-12-13T11:37:08;97092.84;;;8.57;30.58
2841;BME280;53423;49.224;12.074;2022-12-13T11:39:45;97093.31;;;10.59;27.42
2841;BME280;53423;49.224;12.074;2022-12-13T11:42:20;97089.25;;;11.15;25.49
2841;BME280;53423;49.224;12.074;2022-12-13T11:45:00;97086.91;;;10.91;26.84
2841;BME280;53423;49.224;12.074;2022-12-13T11:47:34;97071.22;;;14.61;21.85
2841;BME280;53423;49.224;12.074;2022-12-13T11:50:18;97075.31;;;14.31;21.70
2841;BME280;53423;49.224;12.074;2022-12-13T11:53:15;97067.97;;;16.18;19.29
2841;BME280;53423;49.224;12.074;2022-12-13T11:55:51;97070.16;;;14.17;21.73
2841;BME280;53423;49.224;12.074;2022-12-13T11:58:24;97063.72;;;14.71;20.88
2841;BME280;53423;49.224;12.074;2022-12-13T12:01:21;97056.88;;;17.74;17.28
2841;BME280;53423;49.224;12.074;2022-12-13T12:03:56;97042.28;;;18.35;16.56
2841;BME280;53423;49.224;12.074;2022-12-13T12:06:31;97042.75;;;17.91;16.64
2841;BME280;53423;49.224;12.074;2022-12-13T12:09:04;97045.84;;;17.04;17.92
2841;BME280;53423;49.224;12.074;2022-12-13T12:11:40;97045.16;;;18.34;16.51
2841;BME280;53423;49.224;12.074;2022-12-13T12:14:13;97045.84;;;17.59;17.18
2841;BME280;53423;49.224;12.074;2022-12-13T12:16:47;97050.47;;;14.91;19.75
2841;BME280;53423;49.224;12.074;2022-12-13T12:19:17;97047.81;;;17.45;16.97
2841;BME280;53423;49.224;12.074;2022-12-13T12:21:57;97042.41;;;19.10;15.20
2841;BME280;53423;49.224;12.074;2022-12-13T12:24:47;97034.50;;;20.06;14.48
2841;BME280;53423;49.224;12.074;2022-12-13T12:27:30;97032.50;;;18.82;15.70
2841;BME280;53423;49.224;12.074;2022-12-13T12:30:07;97033.56;;;18.70;16.18
2841;BME280;53423;49.224;12.074;2022-12-13T12:32:43;97032.31;;;16.27;18.37
2841;BME280;53423;49.224;12.074;2022-12-13T12:38:23;97039.81;;;9.57;28.01
2841;BME280;53423;49.224;12.074;2022-12-13T12:41:07;97047.88;;;7.09;31.58
2841;BME280;53423;49.224;12.074;2022-12-13T12:43:48;97057.13;;;6.62;33.18
2841;BME280;53423;49.224;12.074;2022-12-13T12:46:33;97051.00;;;5.77;34.40
2841;BME280;53423;49.224;12.074;2022-12-13T12:49:44;97044.03;;;5.07;37.43
2841;BME280;53423;49.224;12.074;2022-12-13T12:52:22;97036.28;;;4.43;37.61
2841;BME280;53423;49.224;12.074;2022-12-13T12:55:01;97039.28;;;4.39;38.69
2841;BME280;53423;49.224;12.074;2022-12-13T12:57:42;97042.16;;;4.36;38.88
2841;BME280;53423;49.224;12.074;2022-12-13T13:00:16;97044.44;;;4.02;40.36
2841;BME280;53423;49.224;12.074;2022-12-13T13:02:48;97045.69;;;3.98;39.60
2841;BME280;53423;49.224;12.074;2022-12-13T13:05:21;97045.78;;;4.16;39.13
2841;BME280;53423;49.224;12.074;2022-12-13T13:07:54;97036.41;;;3.96;40.26
2841;BME280;53423;49.224;12.074;2022-12-13T13:10:25;97045.31;;;3.74;40.60
2841;BME280;53423;49.224;12.074;2022-12-13T13:12:54;97042.59;;;3.56;40.59
2841;BME280;53423;49.224;12.074;2022-12-13T13:15:56;97054.31;;;3.32;41.11
2841;BME280;53423;49.224;12.074;2022-12-13T13:18:47;97062.91;;;3.32;41.59
2841;BME280;53423;49.224;12.074;2022-12-13T13:21:33;97053.38;;;3.42;41.56
2841;BME280;53423;49.224;12.074;2022-12-13T13:24:11;97058.91;;;3.09;42.11
2841;BME280;53423;49.224;12.074;2022-12-13T13:26:41;97053.00;;;2.79;42.57
2841;BME280;53423;49.224;12.074;2022-12-13T13:29:31;97060.19;;;2.75;42.78
2841;BME280;53423;49.224;12.074;2022-12-13T13:32:23;97051.91;;;2.81;42.96
2841;BME280;53423;49.224;12.074;2022-12-13T13:47:40;97048.25;;;1.93;45.63
2841;BME280;53423;49.224;12.074;2022-12-13T13:56:15;97060.91;;;1.76;46.62
2841;BME280;53423;49.224;12.074;2022-12-13T13:59:18;97062.44;;;1.58;46.79
2841;BME280;53423;49.224;12.074;2022-12-13T14:02:25;97069.06;;;1.71;46.91